Time;durP1;ratioP1;P1;durP2;ratioP2;P2;SDS_P1;SDS_P2;PMS_P1;PMS_P2;Temp;Humidity;BMP_temperature;BMP_pressure;BME280_temperature;BME280_humidity;BME280_pressure;Samples;Min_cycle;Max_cycle;Signal;HPM_P1;HPM_P2
2022/10/16 00:00:55;;;;;;;26.63;17.23;;;;;;;14.23;100.00;100502.23;5079903;58;1143395;-68
2022/10/16 00:06:03;;;;;;;25.63;18.67;;;;;;;14.26;100.00;100495.79;5137785;57;1143386;-69
2022/10/16 00:11:21;;;;;;;23.43;17.67;;;;;;;14.29;100.00;100484.87;5138132;57;1143414;-69
2022/10/16 00:16:28;;;;;;;25.93;17.67;;;;;;;14.27;100.00;100469.05;5157036;56;1143463;-69
2022/10/16 00:21:35;;;;;;;25.63;16.93;;;;;;;14.31;100.00;100468.27;5048805;58;1143184;-68
2022/10/16 00:26:41;;;;;;;25.93;17.80;;;;;;;14.33;100.00;100478.28;5048757;58;1143113;-66
2022/10/16 00:31:47;;;;;;;23.40;16.03;;;;;;;14.29;100.00;100479.55;5143039;57;1141853;-71
2022/10/16 00:36:53;;;;;;;23.02;16.00;;;;;;;14.23;100.00;100483.61;5048636;58;1141447;-68
2022/10/16 00:42:00;;;;;;;22.17;15.80;;;;;;;14.22;100.00;100485.92;5154254;57;1145345;-68
2022/10/16 00:47:05;;;;;;;21.40;14.30;;;;;;;14.23;100.00;100494.25;5060721;57;1145309;-68
2022/10/16 00:52:13;;;;;;;19.98;13.65;;;;;;;14.25;100.00;100498.94;5079100;57;1145480;-65
2022/10/16 00:57:19;;;;;;;21.60;16.27;;;;;;;14.25;100.00;100490.95;5218756;56;1145283;-65
2022/10/16 01:02:25;;;;;;;18.77;14.87;;;;;;;14.26;100.00;100500.63;5218284;56;1145448;-67
2022/10/16 01:07:53;;;;;;;20.27;15.27;;;;;;;14.24;100.00;100491.94;5218637;56;1145077;-67
2022/10/16 01:13:24;;;;;;;19.73;15.03;;;;;;;14.23;100.00;100495.58;5211227;56;1145190;-67
2022/10/16 01:18:52;;;;;;;15.20;11.57;;;;;;;14.25;100.00;100501.60;5165355;56;1145217;-68
2022/10/16 01:24:41;;;;;;;17.60;13.07;;;;;;;14.30;100.00;100507.83;5078513;58;1145242;-69
2022/10/16 01:29:57;;;;;;;22.60;14.00;;;;;;;14.28;100.00;100505.31;5068072;58;1145394;-68
2022/10/16 01:35:25;;;;;;;19.47;13.37;;;;;;;14.33;100.00;100495.58;5080041;57;1145583;-69
2022/10/16 01:40:33;;;;;;;18.30;13.43;;;;;;;14.38;100.00;100503.95;5068081;58;1143472;-68
2022/10/16 01:45:41;;;;;;;18.83;13.70;;;;;;;14.37;100.00;100500.45;5080097;58;1143454;-68
2022/10/16 01:51:12;;;;;;;17.37;11.83;;;;;;;14.40;100.00;100500.20;5072766;58;1143341;-64
2022/10/16 01:56:22;;;;;;;15.10;12.00;;;;;;;14.44;100.00;100499.42;5131767;57;1143293;-66
2022/10/16 02:01:31;;;;;;;17.27;12.37;;;;;;;14.43;100.00;100493.27;5205879;56;1143368;-64
2022/10/16 02:06:37;;;;;;;13.77;11.23;;;;;;;14.48;100.00;100506.64;5216232;56;1143154;-69
2022/10/16 02:11:43;;;;;;;15.37;11.70;;;;;;;14.49;100.00;100510.98;5216343;56;1143207;-66
2022/10/16 02:16:49;;;;;;;15.13;11.43;;;;;;;14.48;100.00;100506.64;5216140;56;1143233;-67
2022/10/16 02:22:08;;;;;;;13.37;10.70;;;;;;;14.47;100.00;100512.45;5136969;56;1143193;-66
2022/10/16 02:27:26;;;;;;;14.65;10.55;;;;;;;14.49;100.00;100513.64;5130470;57;1141210;-68
2022/10/16 02:32:35;;;;;;;14.65;10.18;;;;;;;14.50;100.00;100524.14;5130590;57;1145479;-70
2022/10/16 02:37:42;;;;;;;15.27;9.93;;;;;;;14.51;100.00;100514.34;5131026;57;1145169;-67
2022/10/16 02:42:51;;;;;;;13.63;10.83;;;;;;;14.53;100.00;100512.34;5130572;57;1143197;-66
2022/10/16 02:47:57;;;;;;;13.90;10.63;;;;;;;14.55;100.00;100506.39;5211244;56;1145202;-69
2022/10/16 02:53:03;;;;;;;15.33;10.03;;;;;;;14.54;100.00;100508.70;5217266;56;1145430;-65
2022/10/16 02:58:09;;;;;;;12.53;10.00;;;;;;;14.57;100.00;100511.08;5166945;56;1145285;-70
2022/10/16 03:03:17;;;;;;;14.60;10.17;;;;;;;14.57;100.00;100519.91;5227858;56;1145495;-64
2022/10/16 03:08:24;;;;;;;16.10;11.30;;;;;;;14.52;100.00;100510.17;5218818;56;1145303;-65
2022/10/16 03:13:30;;;;;;;15.13;11.43;;;;;;;14.54;100.00;100516.20;5207888;56;1145519;-67
2022/10/16 03:18:35;;;;;;;15.87;10.90;;;;;;;14.56;100.00;100515.56;5138103;57;1145560;-65
2022/10/16 03:23:42;;;;;;;16.10;11.93;;;;;;;14.59;100.00;100524.59;5034116;58;1145358;-68
2022/10/16 03:28:48;;;;;;;17.57;12.13;;;;;;;14.59;100.00;100529.08;5119156;57;1145313;-68
2022/10/16 03:33:54;;;;;;;14.83;11.60;;;;;;;14.56;100.00;100532.02;5044903;58;1145320;-69
2022/10/16 03:39:00;;;;;;;14.20;10.80;;;;;;;14.53;100.00;100532.30;5062206;58;1145435;-71
2022/10/16 03:44:06;;;;;;;13.10;10.57;;;;;;;14.50;100.00;100537.45;5038393;58;1145197;-70
2022/10/16 03:49:12;;;;;;;18.47;12.27;;;;;;;14.52;100.00;100542.60;5064689;57;1145180;-68
2022/10/16 03:54:19;;;;;;;14.70;11.93;;;;;;;14.49;100.00;100542.91;5132791;56;1145330;-65
2022/10/16 03:59:25;;;;;;;16.90;12.37;;;;;;;14.47;100.00;100544.88;5153577;56;1145326;-69
2022/10/16 04:04:31;;;;;;;14.60;10.53;;;;;;;14.47;100.00;100556.36;5199407;56;1145403;-63
2022/10/16 04:09:36;;;;;;;15.60;11.13;;;;;;;14.43;100.00;100558.95;5189910;56;1145249;-64
2022/10/16 04:14:42;;;;;;;13.33;10.57;;;;;;;14.44;100.00;100560.62;5088256;57;1145240;-72
2022/10/16 04:19:48;;;;;;;17.63;11.83;;;;;;;14.45;100.00;100564.12;5181106;56;1145511;-74
2022/10/16 04:24:54;;;;;;;24.47;12.37;;;;;;;14.45;100.00;100558.81;5171493;56;1145397;-74
2022/10/16 04:30:01;;;;;;;15.07;10.70;;;;;;;14.47;100.00;100566.16;5218379;56;1145232;-73
2022/10/16 04:35:08;;;;;;;19.23;12.17;;;;;;;14.47;100.00;100574.98;5217007;56;1145528;-73
2022/10/16 04:40:15;;;;;;;13.63;10.60;;;;;;;14.45;100.00;100581.43;5159446;56;1145158;-74
2022/10/16 04:45:21;;;;;;;17.90;13.20;;;;;;;14.47;100.00;100582.97;5234169;55;1145398;-75
2022/10/16 04:50:27;;;;;;;16.37;12.70;;;;;;;14.46;100.00;100599.92;5170829;56;1145418;-74
2022/10/16 04:55:45;;;;;;;14.00;11.13;;;;;;;14.45;100.00;100603.56;5036814;58;1145203;-75
2022/10/16 05:00:51;;;;;;;17.03;13.33;;;;;;;14.42;100.00;100608.66;5177916;56;1145300;-75
2022/10/16 05:05:57;;;;;;;18.10;13.03;;;;;;;14.42;100.00;100614.48;5232435;55;1145296;-72
2022/10/16 05:11:03;;;;;;;18.80;13.83;;;;;;;14.37;100.00;100600.72;5118099;56;1145518;-75
2022/10/16 05:16:09;;;;;;;16.03;12.77;;;;;;;14.38;100.00;100606.39;5118464;57;1145325;-74
2022/10/16 05:21:15;;;;;;;16.20;11.57;;;;;;;14.38;100.00;100607.23;5127186;57;1145564;-75
2022/10/16 05:26:20;;;;;;;15.77;11.80;;;;;;;14.36;100.00;100605.20;5128143;57;1143232;-75
2022/10/16 05:31:26;;;;;;;15.30;12.13;;;;;;;14.42;100.00;100601.17;5143565;57;1143242;-73
2022/10/16 05:36:32;;;;;;;19.13;12.27;;;;;;;14.47;100.00;100608.74;5148265;55;1143221;-73
2022/10/16 05:41:37;;;;;;;14.70;12.90;;;;;;;14.46;100.00;100611.05;5126461;56;1143206;-75
2022/10/16 05:46:43;;;;;;;16.63;11.80;;;;;;;14.46;100.00;100617.70;5132799;57;1143232;-73
2022/10/16 05:51:49;;;;;;;20.50;12.17;;;;;;;14.44;100.00;100605.87;5120932;56;1143464;-73
2022/10/16 05:56:54;;;;;;;14.53;11.73;;;;;;;14.46;100.00;100613.71;5117355;56;1143228;-73
2022/10/16 06:02:00;;;;;;;15.00;12.43;;;;;;;14.47;100.00;100616.23;5191735;56;1143194;-73
2022/10/16 06:07:06;;;;;;;16.97;11.70;;;;;;;14.47;100.00;100628.21;5216815;56;1143118;-72
2022/10/16 06:12:12;;;;;;;16.27;13.33;;;;;;;14.50;100.00;100625.77;5168749;55;1143258;-73
2022/10/16 06:17:18;;;;;;;15.73;12.33;;;;;;;14.52;100.00;100613.13;5221524;56;1143220;-73
2022/10/16 06:22:23;;;;;;;17.70;12.37;;;;;;;14.59;100.00;100627.56;5229467;56;1143153;-73
2022/10/16 06:27:29;;;;;;;14.37;12.17;;;;;;;14.61;100.00;100610.47;5229397;56;1143171;-73
2022/10/16 06:32:35;;;;;;;17.93;12.20;;;;;;;14.66;100.00;100628.69;5229381;56;1143264;-72
2022/10/16 06:37:42;;;;;;;15.33;12.17;;;;;;;14.87;100.00;100637.80;5229493;56;1143368;-73
2022/10/16 06:42:48;;;;;;;12.30;10.23;;;;;;;15.05;100.00;100636.08;5229386;56;1143345;-73
2022/10/16 06:47:54;;;;;;;13.77;11.73;;;;;;;15.16;100.00;100638.56;5229383;56;1143122;-73
2022/10/16 06:52:59;;;;;;;13.13;10.70;;;;;;;15.37;100.00;100651.68;5229570;56;1143106;-73
2022/10/16 06:58:05;;;;;;;13.50;9.87;;;;;;;15.56;100.00;100669.45;5229712;56;1141063;-72
2022/10/16 07:03:11;;;;;;;12.50;9.90;;;;;;;15.51;100.00;100680.52;5229271;56;1139127;-73
2022/10/16 07:08:18;;;;;;;12.37;10.82;;;;;;;15.46;100.00;100678.28;5247891;56;1143276;-74
2022/10/16 07:13:24;;;;;;;15.54;11.22;;;;;;;15.62;100.00;100692.34;5123588;56;1145408;-72
2022/10/16 07:18:32;;;;;;;10.80;9.07;;;;;;;15.78;100.00;100691.71;5228016;56;1145216;-74
2022/10/16 07:23:37;;;;;;;14.07;11.03;;;;;;;15.94;100.00;100701.73;5216981;56;1143152;-74
2022/10/16 07:28:45;;;;;;;12.27;10.27;;;;;;;16.10;100.00;100697.92;5180609;56;1145246;-73
2022/10/16 07:33:51;;;;;;;11.03;9.27;;;;;;;16.21;100.00;100690.19;5165390;56;1145503;-73
2022/10/16 07:38:57;;;;;;;17.40;10.27;;;;;;;16.27;100.00;100689.59;5188760;55;1143160;-74
2022/10/16 07:44:04;;;;;;;13.57;9.67;;;;;;;16.47;100.00;100691.13;5177897;56;1145244;-74
2022/10/16 07:49:10;;;;;;;12.55;9.98;;;;;;;16.67;100.00;100687.81;5173886;55;1143130;-73
2022/10/16 07:54:16;;;;;;;9.93;8.67;;;;;;;16.77;100.00;100691.27;5186699;55;1143095;-73
2022/10/16 07:59:22;;;;;;;10.33;9.23;;;;;;;16.90;100.00;100701.05;5182438;56;1141084;-74
2022/10/16 08:04:29;;;;;;;10.10;7.83;;;;;;;16.94;100.00;100704.25;5118245;56;1143208;-74
2022/10/16 08:09:35;;;;;;;9.23;8.33;;;;;;;17.03;100.00;100719.34;5166392;55;1143148;-74
2022/10/16 08:14:42;;;;;;;13.63;8.83;;;;;;;16.98;100.00;100728.30;5181741;55;1141096;-73
2022/10/16 08:19:48;;;;;;;10.76;7.66;;;;;;;16.87;100.00;100736.08;5216491;55;1143194;-74
2022/10/16 08:24:54;;;;;;;14.73;8.40;;;;;;;16.86;100.00;100738.41;5216489;56;1143136;-73
2022/10/16 08:30:00;;;;;;;7.53;6.83;;;;;;;16.83;100.00;100736.03;5216397;56;1143130;-72
2022/10/16 08:35:06;;;;;;;7.37;6.33;;;;;;;16.84;100.00;100745.23;5216529;56;1141503;-72
2022/10/16 08:40:30;;;;;;;12.43;8.33;;;;;;;16.83;100.00;100744.89;5216567;56;1141006;-72
2022/10/16 08:46:01;;;;;;;12.43;10.53;;;;;;;16.82;100.00;100755.73;5210742;56;1143070;-72
2022/10/16 08:51:09;;;;;;;9.23;8.33;;;;;;;16.79;100.00;100760.91;5118630;57;1145227;-72
2022/10/16 08:56:14;;;;;;;9.47;8.57;;;;;;;16.83;100.00;100760.08;5213961;56;1141047;-73
2022/10/16 09:01:23;;;;;;;9.10;7.37;;;;;;;16.84;100.00;100761.27;5228814;56;1141051;-72
2022/10/16 09:06:47;;;;;;;10.67;7.40;;;;;;;16.81;100.00;100760.72;5228497;55;1141040;-73
2022/10/16 09:11:57;;;;;;;9.43;8.23;;;;;;;16.82;100.00;100760.58;5187563;56;1143094;-73
2022/10/16 09:17:41;;;;;;;7.97;7.17;;;;;;;16.97;100.00;100767.55;5183102;56;1139181;-73
2022/10/16 09:22:47;;;;;;;7.93;7.03;;;;;;;17.10;100.00;100775.20;5159953;56;1139311;-73
2022/10/16 09:27:54;;;;;;;10.40;6.80;;;;;;;17.11;100.00;100772.87;5142722;56;1138983;-73
2022/10/16 09:33:01;;;;;;;11.23;7.17;;;;;;;17.09;100.00;100778.86;5142851;56;1141184;-73
2022/10/16 09:38:07;;;;;;;12.33;7.80;;;;;;;17.19;100.00;100786.28;5160423;56;1141092;-73
2022/10/16 09:43:39;;;;;;;8.93;8.03;;;;;;;17.19;100.00;100786.28;5220929;56;1141008;-73
2022/10/16 09:48:50;;;;;;;12.00;6.60;;;;;;;17.21;100.00;100788.30;5223346;56;1137922;-73
2022/10/16 09:54:00;;;;;;;6.93;6.30;;;;;;;17.43;100.00;100781.09;5228104;56;1143312;-74
2022/10/16 09:59:15;;;;;;;7.40;6.70;;;;;;;17.69;100.00;100787.00;5212178;56;1141023;-74
2022/10/16 10:04:25;;;;;;;11.03;5.97;;;;;;;17.89;100.00;100788.42;5143391;56;1141080;-72
2022/10/16 10:09:43;;;;;;;14.03;6.50;;;;;;;18.06;100.00;100788.00;5142726;56;1143265;-73
2022/10/16 10:14:56;;;;;;;6.12;5.53;;;;;;;18.08;100.00;100793.54;5150639;56;1142988;-73
2022/10/16 10:20:18;;;;;;;7.75;5.12;;;;;;;18.11;100.00;100795.06;5167101;56;1141023;-73
2022/10/16 10:25:47;;;;;;;5.42;4.92;;;;;;;18.19;100.00;100803.11;5205204;56;1141088;-73
2022/10/16 10:31:06;;;;;;;5.78;4.95;;;;;;;18.24;100.00;100803.48;5134524;56;1141131;-73
2022/10/16 10:36:33;;;;;;;10.68;6.45;;;;;;;18.22;100.00;100802.30;5174300;56;1141128;-73
2022/10/16 10:42:29;;;;;;;6.53;5.40;;;;;;;18.21;100.00;100801.95;5179628;56;1143088;-73
2022/10/16 10:48:02;;;;;;;7.05;5.00;;;;;;;18.28;100.00;100796.80;5214916;56;1138997;-73
2022/10/16 10:53:29;;;;;;;3.92;3.50;;;;;;;18.49;100.00;100795.84;5200290;56;1138934;-73
2022/10/16 10:59:14;;;;;;;8.43;3.33;;;;;;;18.60;100.00;100794.76;5220919;56;1139206;-73
2022/10/16 11:04:31;;;;;;;3.30;3.05;;;;;;;18.68;100.00;100791.24;5142677;57;1141073;-73
2022/10/16 11:09:43;;;;;;;20.82;10.93;;;;;;;18.72;100.00;100794.78;5140425;56;1141167;-73
2022/10/16 11:14:56;;;;;;;5.03;3.00;;;;;;;18.71;100.00;100781.55;5220010;56;1145216;-73
2022/10/16 11:20:24;;;;;;;8.80;5.67;;;;;;;18.77;100.00;100789.77;5214374;56;1141095;-73
2022/10/16 11:25:33;;;;;;;12.35;5.62;;;;;;;18.86;100.00;100796.80;5166230;56;1141049;-73
2022/10/16 11:31:27;;;;;;;3.77;2.67;;;;;;;18.93;100.00;100795.66;5229337;56;1143163;-73
2022/10/16 11:36:43;;;;;;;5.33;2.70;;;;;;;18.90;100.00;100784.75;5224757;56;1141042;-73
2022/10/16 11:42:21;;;;;;;3.08;2.77;;;;;;;18.92;100.00;100794.81;5184625;56;1141089;-73
2022/10/16 11:47:48;;;;;;;4.45;4.05;;;;;;;18.95;100.00;100793.62;5198554;56;1141207;-72
2022/10/16 11:53:16;;;;;;;8.40;4.87;;;;;;;19.02;100.00;100783.92;5229114;56;1139186;-73
2022/10/16 11:58:34;;;;;;;4.10;3.70;;;;;;;19.21;100.00;100799.68;5233078;55;1138949;-73
2022/10/16 12:03:59;;;;;;;9.65;3.87;;;;;;;19.30;100.00;100805.86;5318175;55;1139024;-73
2022/10/16 12:09:06;;;;;;;4.10;3.67;;;;;;;19.29;100.00;100797.48;5195470;55;1139107;-72
2022/10/16 12:14:22;;;;;;;5.50;3.10;;;;;;;19.31;100.00;100790.11;5292115;55;1136841;-73
2022/10/16 12:19:31;;;;;;;9.03;5.93;;;;;;;19.30;100.00;100794.63;5225007;56;1141036;-72
2022/10/16 12:24:41;;;;;;;4.60;3.27;;;;;;;19.33;100.00;100802.84;5142921;57;1141371;-73
2022/10/16 12:29:46;;;;;;;6.50;3.33;;;;;;;19.33;100.00;100806.37;5144470;56;1141092;-73
2022/10/16 12:34:53;;;;;;;5.94;3.16;;;;;;;19.35;100.00;100807.55;5219790;56;1141109;-72
2022/10/16 12:40:00;;;;;;;5.30;3.35;;;;;;;19.38;100.00;100823.81;5220049;56;1141075;-72
2022/10/16 12:45:27;;;;;;;5.55;3.77;;;;;;;19.39;100.00;100824.98;5219735;56;1141073;-72
2022/10/16 12:50:40;;;;;;;3.62;3.33;;;;;;;19.43;100.00;100838.88;5219761;56;1141029;-72
2022/10/16 12:56:13;;;;;;;3.95;3.10;;;;;;;19.51;100.00;100833.05;5188618;56;1140977;-73
2022/10/16 13:01:26;;;;;;;7.42;3.27;;;;;;;19.63;99.65;100830.34;5263686;55;1141373;-74
2022/10/16 13:06:48;;;;;;;;;;;;;;;19.89;100.00;100829.28;5306004;55;1138989;-74
2022/10/16 13:12:07;;;;;;;5.83;3.72;;;;;;;20.00;98.57;100837.83;5311167;55;978534;-73
2022/10/16 13:17:18;;;;;;;9.98;4.95;;;;;;;19.93;98.08;100838.67;5230857;55;1136878;-73
2022/10/16 13:22:41;;;;;;;9.68;5.87;;;;;;;19.80;97.45;100843.73;5229050;56;1139105;-73
2022/10/16 13:28:02;;;;;;;4.87;4.30;;;;;;;19.75;97.46;100846.92;5229307;56;1139165;-73
2022/10/16 13:33:12;;;;;;;4.90;3.90;;;;;;;20.19;96.18;100855.88;5229011;56;1136922;-73
2022/10/16 13:38:34;;;;;;;4.60;4.12;;;;;;;20.19;96.18;100855.88;5224527;56;1136888;-73
2022/10/16 13:43:56;;;;;;;9.90;7.35;;;;;;;20.33;97.17;100859.17;5229066;56;1136933;-73
2022/10/16 13:49:08;;;;;;;3.77;3.12;;;;;;;20.55;94.78;100875.92;5229036;56;1136988;-73
2022/10/16 13:54:14;;;;;;;3.27;2.55;;;;;;;20.53;93.07;100880.63;5223907;56;1136842;-73
2022/10/16 13:59:38;;;;;;;3.02;2.70;;;;;;;20.42;92.50;100881.02;5228931;56;1136984;-73
2022/10/16 14:04:44;;;;;;;3.25;2.95;;;;;;;20.36;93.36;100883.88;5060221;58;1139129;-72
2022/10/16 14:09:52;;;;;;;4.12;2.85;;;;;;;20.36;92.95;100887.08;5060219;58;1139101;-73
2022/10/16 14:15:01;;;;;;;3.00;2.63;;;;;;;20.50;93.10;100895.75;5069281;57;1138992;-73
2022/10/16 14:20:10;;;;;;;3.42;2.55;;;;;;;20.56;91.45;100902.29;5028495;57;1139069;-73
2022/10/16 14:25:31;;;;;;;4.47;2.75;;;;;;;20.40;92.12;100911.25;5114673;57;1139038;-73
2022/10/16 14:30:42;;;;;;;12.63;3.33;;;;;;;20.22;93.26;100911.44;5105839;57;1139058;-74
2022/10/16 14:35:51;;;;;;;7.95;3.00;;;;;;;20.09;93.93;100909.79;5075510;57;1141228;-73
2022/10/16 14:41:00;;;;;;;4.65;2.30;;;;;;;20.03;94.13;100915.83;5172974;55;1138969;-73
2022/10/16 14:46:13;;;;;;;5.58;2.92;;;;;;;19.93;95.05;100921.89;5248501;55;1138914;-74
2022/10/16 14:51:22;;;;;;;3.67;2.62;;;;;;;19.87;95.20;100923.41;5241292;55;1138986;-74
2022/10/16 14:56:31;;;;;;;3.87;2.92;;;;;;;19.87;95.63;100924.75;5240657;55;1139351;-74
2022/10/16 15:01:37;;;;;;;8.00;3.00;;;;;;;20.34;95.14;100934.73;5251490;55;1138910;-73
2022/10/16 15:06:43;;;;;;;8.48;2.55;;;;;;;21.49;91.80;100939.94;5286714;55;1138911;-74
2022/10/16 15:11:49;;;;;;;14.93;3.10;;;;;;;21.45;88.19;100938.61;5282757;55;1139196;-74
2022/10/16 15:16:55;;;;;;;13.48;6.42;;;;;;;20.98;89.54;100941.73;5252719;55;1141081;-74
2022/10/16 15:22:00;;;;;;;19.00;7.92;;;;;;;20.72;91.23;100946.57;5236639;55;1141010;-74
2022/10/16 15:27:08;;;;;;;15.65;4.37;;;;;;;20.47;91.38;100947.14;5222078;55;1141061;-74
2022/10/16 15:32:13;;;;;;;8.40;2.90;;;;;;;20.22;91.84;100955.75;5226445;55;1140987;-63
2022/10/16 15:37:19;;;;;;;2.65;1.42;;;;;;;19.97;92.84;100950.09;5236535;55;1138988;-73
2022/10/16 15:42:24;;;;;;;2.33;1.77;;;;;;;19.83;93.10;100960.17;5242701;55;1139056;-73
2022/10/16 15:47:30;;;;;;;9.60;6.75;;;;;;;19.66;93.75;100968.72;5243196;55;1138922;-73
2022/10/16 15:52:36;;;;;;;9.80;5.62;;;;;;;19.49;94.23;100973.70;5236191;55;1139089;-73
2022/10/16 15:57:43;;;;;;;5.45;3.98;;;;;;;19.23;95.35;100977.84;5243888;55;1138950;-74
2022/10/16 16:02:55;;;;;;;7.12;4.72;;;;;;;19.23;95.35;100977.84;5244063;55;1138956;-73
2022/10/16 16:08:01;;;;;;;15.98;13.00;;;;;;;19.15;95.55;100988.03;5240230;55;1138994;-73
2022/10/16 16:13:06;;;;;;;16.50;11.88;;;;;;;19.08;96.07;100996.91;5233690;55;1143371;-74
2022/10/16 16:18:12;;;;;;;13.68;9.95;;;;;;;19.01;96.39;101003.40;5243080;55;1143096;-74
2022/10/16 16:23:18;;;;;;;14.45;10.35;;;;;;;18.89;96.43;101008.22;5247792;55;1141045;-71
2022/10/16 16:28:24;;;;;;;17.55;10.85;;;;;;;18.85;96.61;101018.91;5240688;55;1143120;-68
2022/10/16 16:33:31;;;;;;;22.00;12.15;;;;;;;18.80;96.43;101026.58;5239136;55;1143163;-67
2022/10/16 16:38:37;;;;;;;25.65;15.20;;;;;;;18.69;96.46;101029.55;5234253;55;1141108;-65
2022/10/16 16:43:43;;;;;;;41.37;19.30;;;;;;;18.57;96.66;101043.69;5241878;55;1141090;-68
2022/10/16 16:48:55;;;;;;;37.53;18.82;;;;;;;18.46;96.88;101055.17;5238859;55;1141047;-71
2022/10/16 16:53:56;;;;;;;28.60;18.40;;;;;;;18.32;96.85;101056.58;5244142;55;1141022;-68
2022/10/16 16:59:02;;;;;;;37.88;19.75;;;;;;;18.17;96.73;101068.84;5243354;55;1141028;-70
2022/10/16 17:04:10;;;;;;;33.85;19.17;;;;;;;17.93;96.81;101083.67;5237646;55;1141643;-70
2022/10/16 17:09:16;;;;;;;36.30;19.35;;;;;;;17.93;96.81;101083.67;5245236;55;1141161;-70
2022/10/16 17:14:22;;;;;;;38.40;20.68;;;;;;;17.84;97.40;101095.80;5260591;55;1141126;-69
2022/10/16 17:19:28;;;;;;;48.90;18.57;;;;;;;17.75;97.96;101105.56;5266873;55;1141418;-65
2022/10/16 17:24:35;;;;;;;41.65;22.93;;;;;;;17.71;97.88;101108.70;5222163;56;1141100;-67
2022/10/16 17:29:41;;;;;;;104.92;52.20;;;;;;;17.63;97.72;101116.10;5228049;56;1141177;-68
2022/10/16 17:34:47;;;;;;;94.52;54.15;;;;;;;17.48;97.72;101125.13;5222147;56;1143375;-73
2022/10/16 17:39:53;;;;;;;88.70;54.30;;;;;;;17.41;98.29;101136.58;5222228;56;1141185;-75
2022/10/16 17:44:58;;;;;;;581.90;223.75;;;;;;;17.36;98.72;101149.05;5222116;56;1141060;-74
2022/10/16 17:50:05;;;;;;;141.66;73.08;;;;;;;17.32;98.84;101153.48;5222013;55;1145220;-75
2022/10/16 17:55:11;;;;;;;121.90;67.97;;;;;;;17.30;98.54;101156.80;5193989;56;1143187;-74
2022/10/16 18:00:18;;;;;;;112.22;64.45;;;;;;;17.23;98.47;101156.06;5283412;55;1143435;-76
2022/10/16 18:05:23;;;;;;;106.93;58.03;;;;;;;17.07;97.86;101158.52;5228312;55;1141107;-74
2022/10/16 18:10:29;;;;;;;85.83;51.37;;;;;;;16.86;97.69;101166.71;5173286;56;1140897;-76
2022/10/16 18:15:35;;;;;;;89.73;50.83;;;;;;;16.70;98.24;101174.95;5162200;56;1143211;-73
2022/10/16 18:20:41;;;;;;;85.30;51.77;;;;;;;16.62;98.60;101181.00;5161427;56;1143110;-73
2022/10/16 18:25:51;;;;;;;90.33;53.93;;;;;;;16.57;99.00;101185.91;5182928;56;1143163;-74
2022/10/16 18:31:04;;;;;;;88.47;53.70;;;;;;;16.51;98.92;101200.66;5146763;56;1143164;-74
2022/10/16 18:36:11;;;;;;;106.20;62.60;;;;;;;16.46;99.34;101201.59;5226519;55;1143081;-74
2022/10/16 18:41:17;;;;;;;106.63;56.43;;;;;;;16.44;99.84;101213.39;5229124;55;1145205;-74
2022/10/16 18:46:25;;;;;;;110.00;64.40;;;;;;;16.40;99.28;101228.84;5205933;56;1145484;-74
2022/10/16 18:51:33;;;;;;;119.17;71.20;;;;;;;16.37;99.24;101238.94;5098895;57;1145207;-73
2022/10/16 18:56:41;;;;;;;140.93;82.27;;;;;;;16.35;99.52;101235.07;5190150;56;1145267;-73
2022/10/16 19:01:47;;;;;;;108.50;63.60;;;;;;;16.26;99.32;101235.91;5173966;56;1145221;-74
2022/10/16 19:06:54;;;;;;;162.40;81.93;;;;;;;16.17;99.70;101242.94;5140646;56;1145260;-74
2022/10/16 19:12:01;;;;;;;170.30;90.70;;;;;;;16.12;99.29;101261.17;5216495;56;1145237;-75
2022/10/16 19:17:07;;;;;;;177.37;94.83;;;;;;;16.06;99.16;101264.37;5204705;56;1145223;-74
2022/10/16 19:22:49;;;;;;;150.30;86.83;;;;;;;16.02;99.41;101271.48;5216508;56;1145184;-74
2022/10/16 19:27:35;;;;;;;129.27;72.87;;;;;;;15.95;99.45;101273.83;5164547;56;1145178;-76
2022/10/16 19:32:42;;;;;;;101.17;57.00;;;;;;;15.85;99.66;101272.96;5189627;56;1144541;-74
2022/10/16 19:37:50;;;;;;;102.63;59.07;;;;;;;15.75;99.55;101279.56;5179171;56;1145196;-75
2022/10/16 19:42:56;;;;;;;104.37;58.50;;;;;;;15.70;99.35;101275.63;5191175;56;1145241;-76
2022/10/16 19:48:02;;;;;;;150.63;76.03;;;;;;;15.45;98.85;101283.04;5191290;56;1145454;-76
2022/10/16 19:53:08;;;;;;;157.87;79.47;;;;;;;15.35;100.00;101296.80;5166586;56;1145229;-76
2022/10/16 19:58:13;;;;;;;155.80;70.00;;;;;;;15.28;100.00;101293.45;5181936;56;1147296;-74
2022/10/16 20:03:20;;;;;;;168.50;78.07;;;;;;;15.13;100.00;101302.25;5206094;56;1147564;-75
2022/10/16 20:08:26;;;;;;;164.30;79.43;;;;;;;15.15;100.00;101298.98;5215583;56;1147238;-76
2022/10/16 20:13:32;;;;;;;139.93;67.33;;;;;;;15.15;100.00;101301.64;5204624;56;1147303;-77
2022/10/16 20:18:39;;;;;;;125.60;61.73;;;;;;;14.98;100.00;101306.20;5101297;57;1147309;-76
2022/10/16 20:23:47;;;;;;;132.60;59.57;;;;;;;14.98;100.00;101306.20;5077947;56;1147349;-76
2022/10/16 20:28:54;;;;;;;148.33;69.07;;;;;;;15.06;100.00;101325.07;5136329;56;1147586;-76
2022/10/16 20:34:06;;;;;;;155.73;76.47;;;;;;;15.05;100.00;101340.70;5130769;56;1147282;-75
2022/10/16 20:39:15;;;;;;;153.15;75.57;;;;;;;14.87;100.00;101354.20;5138008;57;1147304;-76
2022/10/16 20:44:21;;;;;;;136.83;70.77;;;;;;;14.83;100.00;101358.92;5159373;56;1147366;-75
2022/10/16 20:49:27;;;;;;;109.90;55.77;;;;;;;14.82;100.00;101367.06;5200110;56;1145166;-74
2022/10/16 20:54:33;;;;;;;90.90;43.27;;;;;;;14.78;100.00;101373.13;5175516;56;1145269;-76
2022/10/16 20:59:39;;;;;;;67.77;38.43;;;;;;;14.73;100.00;101368.65;5160828;56;1143579;-76
2022/10/16 21:04:48;;;;;;;57.77;31.40;;;;;;;14.71;100.00;101373.25;5160157;56;1143122;-76
2022/10/16 21:09:56;;;;;;;61.73;32.60;;;;;;;14.66;100.00;101381.63;5121560;56;1143201;-75
2022/10/16 21:15:02;;;;;;;93.90;40.87;;;;;;;14.58;99.97;101377.88;5171169;56;1143681;-75
2022/10/16 21:20:08;;;;;;;164.97;65.23;;;;;;;14.46;99.48;101370.89;5196085;56;1141333;-74
2022/10/16 21:25:14;;;;;;;168.67;66.57;;;;;;;14.19;98.82;101372.09;5209983;56;1143231;-74
2022/10/16 21:30:20;;;;;;;124.27;52.23;;;;;;;14.12;99.87;101386.83;5216276;56;1143667;-76
2022/10/16 21:35:26;;;;;;;134.50;56.07;;;;;;;14.03;100.00;101403.52;5216125;56;1143166;-76
2022/10/16 21:40:35;;;;;;;94.97;39.47;;;;;;;13.96;100.00;101404.95;5221064;56;1145243;-75
2022/10/16 21:45:41;;;;;;;100.73;43.30;;;;;;;13.92;100.00;101391.04;5227571;56;1142986;-75
2022/10/16 21:50:49;;;;;;;118.20;47.73;;;;;;;13.89;100.00;101411.73;5228250;55;1145219;-75
2022/10/16 21:55:55;;;;;;;80.87;36.23;;;;;;;13.97;100.00;101421.28;5228390;56;1145299;-76
2022/10/16 22:01:13;;;;;;;77.67;30.97;;;;;;;13.98;100.00;101422.49;5270549;55;1143257;-74
2022/10/16 22:06:22;;;;;;;68.53;29.77;;;;;;;13.92;100.00;101432.74;5326223;55;21197;-75
2022/10/16 22:11:35;;;;;;;67.17;30.33;;;;;;;13.78;100.00;101424.98;5308025;55;1140984;-74
2022/10/16 22:16:41;;;;;;;80.97;36.40;;;;;;;13.79;100.00;101429.33;5196711;55;1145268;-74
2022/10/16 22:21:47;;;;;;;70.70;32.50;;;;;;;13.70;100.00;101423.77;5165691;56;1145246;-76
2022/10/16 22:26:55;;;;;;;52.43;28.53;;;;;;;13.72;100.00;101436.95;5192031;56;1145335;-75
2022/10/16 22:32:00;;;;;;;32.03;15.10;;;;;;;13.66;100.00;101438.73;5218979;56;1145242;-74
2022/10/16 22:37:06;;;;;;;23.40;12.00;;;;;;;13.61;100.00;101432.91;5218972;56;1145238;-74
2022/10/16 22:42:12;;;;;;;25.07;11.97;;;;;;;13.50;100.00;101432.40;5155818;56;1145293;-74
2022/10/16 22:47:17;;;;;;;16.57;10.03;;;;;;;13.50;100.00;101457.65;5133146;57;1145218;-75
2022/10/16 22:52:23;;;;;;;14.97;9.50;;;;;;;13.52;100.00;101453.55;5132958;57;1145315;-74